Time;durP1;ratioP1;P1;durP2;ratioP2;P2;SDS_P1;SDS_P2;PMS_P1;PMS_P2;Temp;Humidity;BMP_temperature;BMP_pressure;BME280_temperature;BME280_humidity;BME280_pressure;Samples;Min_cycle;Max_cycle;Signal;HPM_P1;HPM_P2
2023/08/19 00:01:21;;;;;;;35.97;16.00;;;;;;;;;;4959981;28;20034;-77
2023/08/19 00:03:46;;;;;;;32.90;14.23;;;;;;;;;;4959718;28;20040;-76
2023/08/19 00:06:38;;;;;;;25.67;15.18;;;;;;;;;;4995772;28;20101;-77
2023/08/19 00:09:04;;;;;;;32.40;14.90;;;;;;;;;;4979140;28;20030;-77
2023/08/19 00:11:31;;;;;;;36.53;16.15;;;;;;;;;;4963253;28;20022;-77
2023/08/19 00:13:57;;;;;;;33.97;16.75;;;;;;;;;;4996640;28;20113;-77
2023/08/19 00:16:22;;;;;;;38.03;16.23;;;;;;;;;;4978599;28;20492;-77
2023/08/19 00:18:48;;;;;;;32.53;15.10;;;;;;;;;;4963174;28;20030;-77
2023/08/19 00:21:13;;;;;;;28.92;14.07;;;;;;;;;;4979183;28;20037;-77
2023/08/19 00:23:39;;;;;;;33.55;15.38;;;;;;;;;;4979245;28;20030;-77
2023/08/19 00:26:04;;;;;;;50.40;16.27;;;;;;;;;;4996211;28;20038;-77
2023/08/19 00:28:29;;;;;;;31.45;15.07;;;;;;;;;;4962082;28;20161;-77
2023/08/19 00:30:54;;;;;;;32.47;15.20;;;;;;;;;;4996328;28;20023;-77
2023/08/19 00:33:23;;;;;;;31.63;17.38;;;;;;;;;;4978721;28;20030;-77
2023/08/19 00:35:53;;;;;;;27.95;13.25;;;;;;;;;;4962815;28;20480;-77
2023/08/19 00:38:18;;;;;;;29.63;14.30;;;;;;;;;;4962318;28;20030;-77
2023/08/19 00:40:44;;;;;;;28.92;14.73;;;;;;;;;;4996141;28;20033;-77
2023/08/19 00:43:09;;;;;;;28.38;12.50;;;;;;;;;;4977803;28;20500;-77
2023/08/19 00:45:37;;;;;;;29.35;14.93;;;;;;;;;;4978593;28;20094;-77
2023/08/19 00:48:03;;;;;;;26.73;15.57;;;;;;;;;;4961511;28;20473;-76
2023/08/19 00:50:29;;;;;;;25.92;12.30;;;;;;;;;;4962117;28;20125;-78
2023/08/19 00:52:54;;;;;;;24.38;12.60;;;;;;;;;;4977776;28;20026;-76
2023/08/19 00:55:20;;;;;;;26.67;14.10;;;;;;;;;;4978104;28;20034;-77
2023/08/19 00:57:46;;;;;;;25.60;11.60;;;;;;;;;;4978362;28;20373;-77
2023/08/19 01:00:12;;;;;;;21.10;11.52;;;;;;;;;;4977790;28;20121;-77
2023/08/19 01:02:38;;;;;;;24.48;13.45;;;;;;;;;;4977714;28;20038;-77
2023/08/19 01:05:04;;;;;;;30.38;14.55;;;;;;;;;;4978391;28;20022;-76
2023/08/19 01:07:46;;;;;;;26.30;12.23;;;;;;;;;;4978004;28;20030;-77
2023/08/19 01:10:23;;;;;;;28.02;13.88;;;;;;;;;;4961188;28;20443;-77
2023/08/19 01:12:54;;;;;;;24.40;12.50;;;;;;;;;;4978069;28;20026;-77
2023/08/19 01:15:22;;;;;;;26.33;13.15;;;;;;;;;;4993998;28;20033;-77
2023/08/19 01:17:48;;;;;;;26.92;12.07;;;;;;;;;;4961762;28;20440;-77
2023/08/19 01:20:14;;;;;;;26.17;13.13;;;;;;;;;;4962276;28;20026;-77
2023/08/19 01:22:47;;;;;;;26.50;12.80;;;;;;;;;;4977261;28;20030;-77
2023/08/19 01:25:12;;;;;;;27.48;12.70;;;;;;;;;;4978084;28;20018;-76
2023/08/19 01:27:38;;;;;;;25.67;13.07;;;;;;;;;;4978002;28;20052;-77
2023/08/19 01:30:04;;;;;;;27.70;12.93;;;;;;;;;;4977609;28;20026;-77
2023/08/19 01:32:29;;;;;;;30.58;14.35;;;;;;;;;;4995160;28;20104;-77
2023/08/19 01:34:54;;;;;;;29.70;13.48;;;;;;;;;;4978113;28;20457;-77
2023/08/19 01:37:37;;;;;;;28.13;13.05;;;;;;;;;;4977306;28;20034;-77
2023/08/19 01:40:06;;;;;;;27.05;12.20;;;;;;;;;;4961545;28;20026;-77
2023/08/19 01:42:32;;;;;;;27.90;14.35;;;;;;;;;;4961569;28;20037;-78
2023/08/19 01:44:58;;;;;;;28.20;12.88;;;;;;;;;;4994289;28;20026;-77
2023/08/19 01:47:23;;;;;;;27.27;13.13;;;;;;;;;;4977474;28;20037;-77
2023/08/19 01:49:48;;;;;;;27.10;14.00;;;;;;;;;;4977231;28;20030;-77
2023/08/19 01:52:14;;;;;;;28.90;13.43;;;;;;;;;;4977318;28;20026;-77
2023/08/19 01:54:40;;;;;;;23.55;10.98;;;;;;;;;;4960923;28;20456;-77
2023/08/19 01:57:06;;;;;;;27.50;14.68;;;;;;;;;;4977327;28;20030;-76
2023/08/19 01:59:32;;;;;;;22.35;11.15;;;;;;;;;;4976215;28;20026;-77
2023/08/19 02:01:57;;;;;;;27.05;13.23;;;;;;;;;;4976427;28;20041;-77
2023/08/19 02:04:23;;;;;;;28.83;14.07;;;;;;;;;;4977019;28;20084;-76
2023/08/19 02:06:48;;;;;;;32.80;14.02;;;;;;;;;;4977215;28;20037;-77
2023/08/19 02:09:13;;;;;;;26.20;13.98;;;;;;;;;;4994298;28;20026;-77
2023/08/19 02:11:39;;;;;;;29.15;12.57;;;;;;;;;;4994090;28;20392;-76
2023/08/19 02:14:04;;;;;;;26.75;13.77;;;;;;;;;;4977011;28;20034;-76
2023/08/19 02:16:29;;;;;;;26.88;12.52;;;;;;;;;;4976734;28;20399;-77
2023/08/19 02:18:58;;;;;;;24.17;12.43;;;;;;;;;;4960628;28;20034;-77
2023/08/19 02:21:23;;;;;;;26.55;12.95;;;;;;;;;;4976150;28;20109;-77
2023/08/19 02:23:49;;;;;;;27.63;13.30;;;;;;;;;;4977113;28;20069;-77
2023/08/19 02:26:14;;;;;;;23.83;13.20;;;;;;;;;;4960736;28;20026;-77
2023/08/19 02:28:39;;;;;;;22.65;12.52;;;;;;;;;;4960654;28;20104;-77
2023/08/19 02:31:05;;;;;;;28.05;12.68;;;;;;;;;;4976357;28;20045;-77
2023/08/19 02:33:30;;;;;;;24.90;13.13;;;;;;;;;;4976484;28;20121;-77
2023/08/19 02:35:55;;;;;;;28.33;13.10;;;;;;;;;;4976565;28;20031;-77
2023/08/19 02:38:21;;;;;;;25.63;12.98;;;;;;;;;;4960141;28;20094;-77
2023/08/19 02:40:50;;;;;;;28.40;12.95;;;;;;;;;;4960464;28;20031;-76
2023/08/19 02:43:16;;;;;;;22.38;11.65;;;;;;;;;;4976667;28;20022;-76
2023/08/19 02:45:41;;;;;;;26.58;12.20;;;;;;;;;;4960594;28;20117;-77
2023/08/19 02:48:07;;;;;;;20.42;11.25;;;;;;;;;;4976534;28;20026;-76
2023/08/19 02:50:32;;;;;;;24.63;13.35;;;;;;;;;;4976498;28;20023;-76
2023/08/19 02:52:58;;;;;;;22.33;11.98;;;;;;;;;;4976550;28;20026;-77
2023/08/19 02:55:23;;;;;;;25.60;13.63;;;;;;;;;;4976378;28;20400;-77
2023/08/19 02:57:48;;;;;;;23.02;12.07;;;;;;;;;;4976121;28;20038;-77
2023/08/19 03:00:15;;;;;;;22.92;11.77;;;;;;;;;;4994314;28;20034;-77
2023/08/19 03:02:40;;;;;;;25.85;12.55;;;;;;;;;;4976496;28;20169;-77
2023/08/19 03:05:06;;;;;;;26.38;12.40;;;;;;;;;;4976334;28;20444;-77
2023/08/19 03:07:31;;;;;;;24.40;11.93;;;;;;;;;;4976322;28;20033;-77
2023/08/19 03:09:56;;;;;;;22.58;12.07;;;;;;;;;;4942495;29;20028;-77
2023/08/19 03:12:22;;;;;;;21.58;11.90;;;;;;;;;;4977550;28;20018;-77
2023/08/19 03:14:47;;;;;;;22.55;11.93;;;;;;;;;;4979771;28;20388;-77
2023/08/19 03:17:15;;;;;;;20.88;11.93;;;;;;;;;;4979262;28;20046;-77
2023/08/19 03:19:40;;;;;;;19.45;12.13;;;;;;;;;;4980175;28;20029;-76
2023/08/19 03:22:06;;;;;;;22.90;13.43;;;;;;;;;;4979830;28;20022;-77
2023/08/19 03:24:31;;;;;;;21.40;11.60;;;;;;;;;;4979909;28;20384;-77
2023/08/19 03:26:56;;;;;;;22.60;12.30;;;;;;;;;;4979820;28;20031;-76
2023/08/19 03:29:23;;;;;;;20.70;11.90;;;;;;;;;;4996819;28;20039;-76
2023/08/19 03:31:48;;;;;;;21.77;11.88;;;;;;;;;;4980117;28;20030;-76
2023/08/19 03:34:14;;;;;;;21.00;11.57;;;;;;;;;;4963790;28;20023;-77
2023/08/19 03:36:39;;;;;;;20.60;11.82;;;;;;;;;;4979688;28;20472;-76
2023/08/19 03:39:04;;;;;;;21.13;12.05;;;;;;;;;;4979103;28;20077;-76
2023/08/19 03:41:30;;;;;;;20.30;12.13;;;;;;;;;;4996763;28;20106;-77
2023/08/19 03:43:55;;;;;;;22.00;10.80;;;;;;;;;;4963413;28;20045;-76
2023/08/19 03:46:20;;;;;;;23.85;11.25;;;;;;;;;;4996780;28;20396;-77
2023/08/19 03:48:46;;;;;;;26.70;13.60;;;;;;;;;;4996773;28;20026;-76
2023/08/19 03:51:11;;;;;;;20.15;12.05;;;;;;;;;;4979617;28;20026;-77
2023/08/19 03:53:36;;;;;;;23.60;12.73;;;;;;;;;;4962605;28;20022;-76
2023/08/19 03:56:01;;;;;;;23.25;11.55;;;;;;;;;;4996884;28;20049;-77
2023/08/19 03:58:27;;;;;;;27.10;13.27;;;;;;;;;;4979231;28;20032;-76
2023/08/19 04:00:52;;;;;;;23.38;12.60;;;;;;;;;;4996963;28;20084;-76
2023/08/19 04:03:17;;;;;;;24.45;12.90;;;;;;;;;;4995819;28;20057;-78
2023/08/19 04:05:42;;;;;;;22.20;12.18;;;;;;;;;;4962876;28;20031;-76
2023/08/19 04:08:08;;;;;;;27.52;13.88;;;;;;;;;;4979020;28;20022;-77
2023/08/19 04:10:33;;;;;;;21.88;12.57;;;;;;;;;;4996463;28;20485;-77
2023/08/19 04:12:58;;;;;;;22.38;12.02;;;;;;;;;;4996456;28;20037;-77
2023/08/19 04:15:23;;;;;;;25.20;14.02;;;;;;;;;;4978613;28;20022;-76
2023/08/19 04:17:49;;;;;;;26.00;14.77;;;;;;;;;;4995898;28;20030;-77
2023/08/19 04:20:14;;;;;;;23.70;12.80;;;;;;;;;;4978268;28;20026;-76
2023/08/19 04:22:40;;;;;;;21.58;12.70;;;;;;;;;;4994683;28;20037;-76
2023/08/19 04:25:06;;;;;;;24.88;12.40;;;;;;;;;;4995732;28;20023;-76
2023/08/19 04:27:31;;;;;;;20.63;12.45;;;;;;;;;;4977954;28;20032;-76
2023/08/19 04:29:57;;;;;;;25.58;13.93;;;;;;;;;;4978469;28;20041;-76
2023/08/19 04:32:22;;;;;;;22.92;12.55;;;;;;;;;;4995560;28;20461;-76
2023/08/19 04:34:48;;;;;;;22.08;13.43;;;;;;;;;;4977588;28;20030;-78
2023/08/19 04:37:13;;;;;;;24.33;13.68;;;;;;;;;;4978163;28;20026;-77
2023/08/19 04:39:38;;;;;;;25.27;13.43;;;;;;;;;;4978366;28;20030;-77
2023/08/19 04:42:03;;;;;;;21.45;11.63;;;;;;;;;;4978250;28;20432;-76
2023/08/19 04:44:29;;;;;;;21.60;12.57;;;;;;;;;;4995384;28;20436;-77
2023/08/19 04:46:54;;;;;;;25.10;14.20;;;;;;;;;;4978474;28;20026;-77
2023/08/19 04:49:20;;;;;;;25.38;13.15;;;;;;;;;;4994738;28;20026;-77
2023/08/19 04:51:45;;;;;;;22.45;13.27;;;;;;;;;;4995145;28;20034;-77
2023/08/19 04:54:11;;;;;;;24.45;12.65;;;;;;;;;;4995100;28;20046;-77
2023/08/19 04:56:36;;;;;;;25.10;12.90;;;;;;;;;;4995113;28;20026;-76
2023/08/19 04:59:02;;;;;;;24.25;12.95;;;;;;;;;;4977550;28;20081;-77
2023/08/19 05:01:28;;;;;;;25.15;14.68;;;;;;;;;;4977708;28;20030;-77
2023/08/19 05:03:53;;;;;;;24.15;12.38;;;;;;;;;;5004257;23;20123;-74
2023/08/19 05:06:19;;;;;;;22.35;13.52;;;;;;;;;;5015032;28;20026;-74
2023/08/19 05:08:44;;;;;;;22.98;13.20;;;;;;;;;;5014835;28;20033;-74
2023/08/19 05:11:09;;;;;;;20.27;11.13;;;;;;;;;;4997654;28;20388;-74
2023/08/19 05:13:35;;;;;;;25.55;14.25;;;;;;;;;;5014146;28;20026;-74
2023/08/19 05:16:00;;;;;;;24.30;13.40;;;;;;;;;;5014850;28;20024;-74
2023/08/19 05:18:25;;;;;;;25.50;14.50;;;;;;;;;;5013722;28;20483;-74
2023/08/19 05:20:50;;;;;;;28.33;15.13;;;;;;;;;;5014068;28;20034;-73
2023/08/19 05:23:16;;;;;;;27.15;14.48;;;;;;;;;;5014765;28;20057;-74
2023/08/19 05:25:42;;;;;;;26.88;15.15;;;;;;;;;;5013352;28;20113;-74
2023/08/19 05:28:07;;;;;;;26.35;15.27;;;;;;;;;;5013348;28;20030;-74
2023/08/19 05:30:32;;;;;;;24.48;13.55;;;;;;;;;;5014614;28;20025;-74
2023/08/19 05:32:58;;;;;;;24.30;12.90;;;;;;;;;;5014411;28;20456;-74
2023/08/19 05:35:23;;;;;;;25.80;13.90;;;;;;;;;;4996031;28;20029;-75
2023/08/19 05:37:48;;;;;;;25.15;13.57;;;;;;;;;;5014578;28;20033;-74
2023/08/19 05:40:14;;;;;;;22.27;13.13;;;;;;;;;;5013179;28;20032;-75
2023/08/19 05:42:39;;;;;;;23.13;13.27;;;;;;;;;;5014879;28;20026;-75
2023/08/19 05:45:05;;;;;;;22.27;12.88;;;;;;;;;;5013901;28;20025;-74
2023/08/19 05:47:30;;;;;;;23.48;12.32;;;;;;;;;;5014236;28;20494;-74
2023/08/19 05:49:55;;;;;;;23.52;13.00;;;;;;;;;;5014383;28;20498;-74
2023/08/19 05:52:20;;;;;;;26.55;13.73;;;;;;;;;;5014345;28;20076;-75
2023/08/19 05:54:46;;;;;;;22.70;12.75;;;;;;;;;;5013771;28;20129;-75
2023/08/19 05:57:11;;;;;;;22.98;12.02;;;;;;;;;;5014152;28;20395;-74
2023/08/19 05:59:36;;;;;;;25.48;13.57;;;;;;;;;;4996401;28;20034;-74
2023/08/19 06:02:02;;;;;;;22.88;13.70;;;;;;;;;;5013349;28;20030;-74
2023/08/19 06:04:27;;;;;;;22.77;12.90;;;;;;;;;;5013838;28;20036;-74
2023/08/19 06:06:52;;;;;;;26.75;12.82;;;;;;;;;;5013984;28;20072;-75
2023/08/19 06:09:18;;;;;;;23.65;13.23;;;;;;;;;;5012203;28;20039;-74
2023/08/19 06:11:51;;;;;;;23.15;12.85;;;;;;;;;;5013844;28;20052;-74
2023/08/19 06:14:16;;;;;;;21.75;13.27;;;;;;;;;;5012544;28;20076;-74
2023/08/19 06:16:42;;;;;;;19.52;11.77;;;;;;;;;;5012629;28;20400;-74
2023/08/19 06:19:08;;;;;;;23.90;13.27;;;;;;;;;;4996242;28;20026;-74
2023/08/19 06:21:33;;;;;;;20.75;12.52;;;;;;;;;;5012536;28;20122;-74
2023/08/19 06:23:58;;;;;;;18.58;11.02;;;;;;;;;;5012239;28;20020;-74
2023/08/19 06:26:25;;;;;;;19.45;12.43;;;;;;;;;;4996631;28;20476;-74
2023/08/19 06:28:50;;;;;;;26.33;13.65;;;;;;;;;;5013916;28;20022;-75
2023/08/19 06:31:15;;;;;;;19.35;11.32;;;;;;;;;;4995747;28;20030;-74
2023/08/19 06:33:41;;;;;;;21.98;11.15;;;;;;;;;;4995820;28;20029;-74
2023/08/19 06:36:07;;;;;;;22.63;11.15;;;;;;;;;;5012392;28;20041;-74
2023/08/19 06:38:33;;;;;;;16.33;11.00;;;;;;;;;;4996095;28;20025;-74
2023/08/19 06:41:04;;;;;;;23.10;11.25;;;;;;;;;;4995627;28;20022;-74
2023/08/19 06:43:30;;;;;;;17.35;10.43;;;;;;;;;;5012228;28;20059;-74
2023/08/19 06:45:56;;;;;;;17.92;10.52;;;;;;;;;;4996552;28;20021;-74
2023/08/19 06:48:23;;;;;;;20.83;11.10;;;;;;;;;;5017622;28;20548;-75
2023/08/19 06:50:52;;;;;;;16.02;10.93;;;;;;;;;;5016280;28;20105;-75
2023/08/19 06:53:18;;;;;;;16.63;10.02;;;;;;;;;;5015560;28;20025;-74
2023/08/19 06:55:56;;;;;;;15.77;9.23;;;;;;;;;;5016335;28;20436;-74
2023/08/19 06:58:28;;;;;;;17.98;10.63;;;;;;;;;;5017410;28;20505;-75
2023/08/19 07:00:59;;;;;;;17.08;10.68;;;;;;;;;;4999964;28;20506;-75
2023/08/19 07:03:27;;;;;;;17.70;10.65;;;;;;;;;;5015841;28;20034;-75
2023/08/19 07:05:54;;;;;;;15.68;10.88;;;;;;;;;;5015500;28;20105;-74
2023/08/19 07:08:19;;;;;;;16.92;10.07;;;;;;;;;;5015854;28;20022;-75
2023/08/19 07:10:45;;;;;;;17.15;10.63;;;;;;;;;;5016126;28;20025;-75
2023/08/19 07:13:11;;;;;;;16.75;10.77;;;;;;;;;;5000004;28;20022;-75
2023/08/19 07:15:41;;;;;;;15.27;9.80;;;;;;;;;;5017400;28;20022;-75
2023/08/19 07:18:09;;;;;;;16.88;11.80;;;;;;;;;;4982846;28;20064;-74
2023/08/19 07:20:35;;;;;;;15.55;10.15;;;;;;;;;;5015848;28;20018;-75
2023/08/19 07:23:01;;;;;;;14.38;10.15;;;;;;;;;;5015735;28;20080;-75
2023/08/19 07:25:30;;;;;;;18.23;11.05;;;;;;;;;;5016171;28;20506;-75
2023/08/19 07:27:56;;;;;;;18.52;11.88;;;;;;;;;;5015514;28;20026;-75
2023/08/19 07:30:22;;;;;;;16.52;11.13;;;;;;;;;;5015160;28;20076;-75
2023/08/19 07:32:48;;;;;;;16.55;9.25;;;;;;;;;;5016594;28;20399;-74
2023/08/19 07:35:13;;;;;;;14.10;10.23;;;;;;;;;;5016546;28;20026;-75
2023/08/19 07:37:38;;;;;;;17.75;11.93;;;;;;;;;;5015492;28;20037;-75
2023/08/19 07:40:06;;;;;;;17.33;12.27;;;;;;;;;;5015332;28;20448;-76
2023/08/19 07:42:31;;;;;;;16.92;12.27;;;;;;;;;;5014708;28;20033;-73
2023/08/19 07:44:57;;;;;;;17.13;9.82;;;;;;;;;;5016120;28;20018;-73
2023/08/19 07:47:22;;;;;;;17.17;10.20;;;;;;;;;;5016092;28;20029;-73
2023/08/19 07:49:47;;;;;;;15.48;10.30;;;;;;;;;;5016109;28;20029;-73
2023/08/19 07:52:13;;;;;;;15.73;10.57;;;;;;;;;;5016283;28;20056;-73
2023/08/19 07:54:39;;;;;;;13.93;10.27;;;;;;;;;;5015133;28;20108;-73
2023/08/19 07:57:04;;;;;;;16.48;10.88;;;;;;;;;;5016363;28;20034;-73
2023/08/19 07:59:29;;;;;;;13.82;10.30;;;;;;;;;;5015040;28;20018;-73
2023/08/19 08:01:55;;;;;;;12.48;9.70;;;;;;;;;;5015995;28;20030;-73
2023/08/19 08:04:21;;;;;;;13.13;9.18;;;;;;;;;;5015248;28;20411;-73
2023/08/19 08:06:48;;;;;;;14.65;10.10;;;;;;;;;;5014780;28;20098;-74
2023/08/19 08:09:13;;;;;;;16.40;10.25;;;;;;;;;;5014171;28;20026;-74
2023/08/19 08:11:40;;;;;;;16.55;11.13;;;;;;;;;;4998123;28;20048;-74
2023/08/19 08:14:05;;;;;;;17.63;10.73;;;;;;;;;;4998195;28;20032;-73
2023/08/19 08:16:30;;;;;;;14.07;10.32;;;;;;;;;;5014488;28;20038;-73
2023/08/19 08:18:55;;;;;;;14.85;10.27;;;;;;;;;;5015170;28;20029;-74
2023/08/19 08:21:21;;;;;;;14.45;10.32;;;;;;;;;;4998048;28;20022;-73
2023/08/19 08:23:47;;;;;;;17.52;10.80;;;;;;;;;;5015462;28;20030;-74
2023/08/19 08:26:13;;;;;;;16.00;11.18;;;;;;;;;;4997953;28;20018;-74
2023/08/19 08:28:38;;;;;;;16.13;9.75;;;;;;;;;;5015017;28;20060;-75
2023/08/19 08:31:04;;;;;;;13.07;9.75;;;;;;;;;;5014423;28;20083;-74
2023/08/19 08:33:29;;;;;;;12.85;10.80;;;;;;;;;;5015486;28;20022;-74
2023/08/19 08:35:54;;;;;;;13.45;9.90;;;;;;;;;;5015178;28;20032;-75
2023/08/19 08:38:19;;;;;;;14.25;9.82;;;;;;;;;;5014812;28;20057;-74
2023/08/19 08:40:45;;;;;;;14.48;10.32;;;;;;;;;;4997543;28;20022;-74
2023/08/19 08:43:10;;;;;;;13.57;10.07;;;;;;;;;;4981336;28;20021;-74
2023/08/19 08:45:36;;;;;;;15.75;10.30;;;;;;;;;;5015092;28;20037;-74
2023/08/19 08:48:02;;;;;;;12.98;10.27;;;;;;;;;;4997662;28;20030;-74
2023/08/19 08:50:27;;;;;;;13.80;9.77;;;;;;;;;;4997973;28;20017;-75
2023/08/19 08:52:57;;;;;;;10.95;8.30;;;;;;;;;;5013795;28;20049;-75
2023/08/19 08:55:22;;;;;;;12.85;9.60;;;;;;;;;;5014090;28;20029;-74
2023/08/19 08:57:47;;;;;;;13.93;9.93;;;;;;;;;;5013793;28;20071;-74
2023/08/19 09:00:14;;;;;;;13.05;9.98;;;;;;;;;;5013840;28;20021;-74
2023/08/19 09:02:40;;;;;;;14.15;9.43;;;;;;;;;;5013018;28;20025;-74
2023/08/19 09:05:06;;;;;;;15.73;9.70;;;;;;;;;;4997191;28;20503;-74
2023/08/19 09:07:36;;;;;;;14.55;10.23;;;;;;;;;;4997309;28;20030;-74
2023/08/19 09:10:02;;;;;;;16.92;9.80;;;;;;;;;;5014047;28;20021;-74
2023/08/19 09:12:29;;;;;;;15.05;10.13;;;;;;;;;;4996899;28;20030;-74
2023/08/19 09:14:58;;;;;;;13.52;9.88;;;;;;;;;;5012737;28;20404;-73
2023/08/19 09:17:23;;;;;;;14.00;9.90;;;;;;;;;;4997024;28;20053;-73
2023/08/19 09:19:49;;;;;;;13.52;10.70;;;;;;;;;;5014543;28;20030;-74
2023/08/19 09:22:17;;;;;;;14.27;10.27;;;;;;;;;;5014053;28;20137;-72
2023/08/19 09:24:42;;;;;;;12.95;9.38;;;;;;;;;;5014446;28;20036;-73
2023/08/19 09:27:08;;;;;;;13.52;10.52;;;;;;;;;;4996602;28;20120;-73
2023/08/19 09:29:34;;;;;;;17.75;9.70;;;;;;;;;;5014639;28;20032;-73
2023/08/19 09:31:59;;;;;;;14.02;9.93;;;;;;;;;;5012417;28;20030;-73
2023/08/19 09:34:25;;;;;;;12.00;9.45;;;;;;;;;;5013976;28;20021;-73
2023/08/19 09:36:57;;;;;;;14.65;10.63;;;;;;;;;;5014411;28;20494;-73
2023/08/19 09:39:25;;;;;;;16.15;10.43;;;;;;;;;;5014112;28;20040;-73
2023/08/19 09:41:57;;;;;;;12.02;9.82;;;;;;;;;;4996448;28;20022;-73
2023/08/19 09:44:25;;;;;;;14.15;10.32;;;;;;;;;;5013867;28;20022;-73
2023/08/19 09:46:50;;;;;;;11.15;9.05;;;;;;;;;;5014389;28;20017;-73
2023/08/19 09:49:22;;;;;;;14.15;9.93;;;;;;;;;;5012961;28;20026;-73
2023/08/19 09:51:55;;;;;;;15.68;11.02;;;;;;;;;;5012436;28;20029;-73
2023/08/19 09:54:20;;;;;;;12.57;9.68;;;;;;;;;;5012419;28;20484;-73
2023/08/19 09:56:55;;;;;;;13.82;10.98;;;;;;;;;;5013854;28;20036;-74
2023/08/19 09:59:22;;;;;;;13.60;9.55;;;;;;;;;;4996125;28;20022;-73
2023/08/19 10:01:49;;;;;;;13.13;10.73;;;;;;;;;;5012028;28;20022;-73
2023/08/19 10:04:14;;;;;;;14.45;9.52;;;;;;;;;;4995880;28;20518;-73
2023/08/19 10:06:42;;;;;;;14.05;11.00;;;;;;;;;;5013864;28;20021;-73
2023/08/19 10:09:08;;;;;;;14.20;9.65;;;;;;;;;;5012437;28;20026;-73
2023/08/19 10:11:35;;;;;;;13.57;11.00;;;;;;;;;;4996150;28;20029;-73
2023/08/19 10:14:03;;;;;;;12.85;10.63;;;;;;;;;;4995985;28;20026;-73
2023/08/19 10:16:31;;;;;;;13.13;10.43;;;;;;;;;;5013181;28;20025;-73
2023/08/19 10:18:57;;;;;;;21.70;11.77;;;;;;;;;;5012249;28;20025;-73
2023/08/19 10:21:24;;;;;;;12.98;9.90;;;;;;;;;;5011532;28;20095;-73
2023/08/19 10:23:50;;;;;;;14.95;11.18;;;;;;;;;;5012148;28;20029;-73
2023/08/19 10:26:16;;;;;;;12.27;9.25;;;;;;;;;;5012914;28;20563;-73
2023/08/19 10:28:41;;;;;;;12.98;10.23;;;;;;;;;;5012691;28;20033;-73
2023/08/19 10:31:08;;;;;;;15.27;11.15;;;;;;;;;;4995801;28;20068;-73
2023/08/19 10:33:45;;;;;;;14.93;10.75;;;;;;;;;;5012415;28;20037;-73
2023/08/19 10:36:14;;;;;;;15.38;10.85;;;;;;;;;;5012825;28;20026;-73
2023/08/19 10:39:00;;;;;;;14.77;10.15;;;;;;;;;;5013764;28;20052;-73
2023/08/19 10:41:27;;;;;;;13.90;10.80;;;;;;;;;;5012754;28;20034;-74
2023/08/19 10:44:10;;;;;;;13.93;10.68;;;;;;;;;;5013381;28;20133;-73
2023/08/19 10:46:47;;;;;;;12.90;10.10;;;;;;;;;;5013009;28;20056;-73
2023/08/19 10:49:19;;;;;;;14.35;10.80;;;;;;;;;;5012585;28;20033;-73
2023/08/19 10:51:51;;;;;;;16.65;11.85;;;;;;;;;;4996050;28;20024;-73
2023/08/19 10:54:34;;;;;;;15.13;11.73;;;;;;;;;;4995943;28;20510;-73
2023/08/19 10:57:09;;;;;;;14.43;11.02;;;;;;;;;;5011437;28;20030;-73
2023/08/19 10:59:35;;;;;;;15.20;11.93;;;;;;;;;;5013191;28;20025;-73
2023/08/19 11:02:01;;;;;;;17.70;12.73;;;;;;;;;;5013292;28;20057;-74
2023/08/19 11:04:28;;;;;;;14.18;11.10;;;;;;;;;;5051559;23;20087;-75
2023/08/19 11:06:55;;;;;;;15.65;11.85;;;;;;;;;;5016329;28;20098;-75
2023/08/19 11:09:27;;;;;;;16.67;11.77;;;;;;;;;;4982170;28;20030;-75
2023/08/19 11:11:56;;;;;;;17.38;12.10;;;;;;;;;;5028813;28;20025;-75
2023/08/19 11:14:22;;;;;;;15.52;11.15;;;;;;;;;;5013203;28;20026;-75
2023/08/19 11:16:52;;;;;;;14.60;11.98;;;;;;;;;;5013690;28;20037;-75
2023/08/19 11:19:18;;;;;;;16.63;10.95;;;;;;;;;;4979887;28;20480;-77
2023/08/19 11:21:44;;;;;;;15.77;11.23;;;;;;;;;;4996169;28;20021;-76
2023/08/19 11:24:10;;;;;;;16.60;11.68;;;;;;;;;;5012719;28;20538;-76
2023/08/19 11:26:35;;;;;;;17.10;12.20;;;;;;;;;;4979555;28;20546;-77
2023/08/19 11:29:04;;;;;;;15.07;11.95;;;;;;;;;;5013597;28;20498;-76
2023/08/19 11:31:29;;;;;;;17.88;13.18;;;;;;;;;;5013169;28;20492;-76
2023/08/19 11:33:55;;;;;;;15.70;11.60;;;;;;;;;;5017171;28;20088;-75
2023/08/19 11:36:24;;;;;;;16.52;11.65;;;;;;;;;;4998733;28;20500;-77
2023/08/19 11:38:56;;;;;;;18.20;11.57;;;;;;;;;;5013416;28;20483;-77
2023/08/19 11:41:22;;;;;;;14.57;11.43;;;;;;;;;;5019351;28;20499;-77
2023/08/19 11:43:50;;;;;;;16.40;11.65;;;;;;;;;;5019456;28;20026;-77
2023/08/19 11:46:15;;;;;;;16.67;12.65;;;;;;;;;;5019101;28;20071;-75
2023/08/19 11:48:41;;;;;;;16.75;11.90;;;;;;;;;;5018952;28;20025;-75
2023/08/19 11:51:13;;;;;;;16.73;11.93;;;;;;;;;;5036410;28;20049;-74
2023/08/19 11:53:39;;;;;;;16.42;10.75;;;;;;;;;;5018330;28;20029;-75
2023/08/19 11:56:05;;;;;;;16.25;12.50;;;;;;;;;;5018636;28;20100;-76
2023/08/19 11:58:47;;;;;;;18.63;12.40;;;;;;;;;;5017791;28;20033;-75
2023/08/19 12:01:13;;;;;;;16.35;11.35;;;;;;;;;;5035841;28;20495;-75
2023/08/19 12:03:43;;;;;;;18.17;12.25;;;;;;;;;;5018332;28;20057;-75
2023/08/19 12:06:08;;;;;;;16.02;11.85;;;;;;;;;;5018423;28;20028;-75
2023/08/19 12:08:33;;;;;;;19.08;12.00;;;;;;;;;;5018555;28;20400;-75
2023/08/19 12:10:59;;;;;;;17.73;12.93;;;;;;;;;;5017768;28;20025;-75
2023/08/19 12:13:27;;;;;;;17.55;11.60;;;;;;;;;;5018464;28;20029;-75
2023/08/19 12:15:53;;;;;;;16.77;12.00;;;;;;;;;;5004544;28;20030;-75
2023/08/19 12:18:18;;;;;;;19.83;12.63;;;;;;;;;;4982388;28;20018;-75
2023/08/19 12:20:44;;;;;;;19.58;11.95;;;;;;;;;;5014998;28;20507;-75
2023/08/19 12:23:10;;;;;;;18.48;12.18;;;;;;;;;;4998357;28;20030;-74
2023/08/19 12:25:56;;;;;;;16.20;11.68;;;;;;;;;;4999078;28;20022;-75
2023/08/19 12:28:25;;;;;;;20.17;13.60;;;;;;;;;;4997679;28;20026;-74
2023/08/19 12:30:53;;;;;;;16.02;11.45;;;;;;;;;;5034188;28;20029;-75
2023/08/19 12:33:19;;;;;;;18.65;13.13;;;;;;;;;;4987625;28;20038;-75
2023/08/19 12:35:46;;;;;;;17.40;11.88;;;;;;;;;;4978246;28;20122;-74
2023/08/19 12:38:14;;;;;;;18.35;13.52;;;;;;;;;;5012868;28;20080;-75
2023/08/19 12:40:39;;;;;;;15.65;11.88;;;;;;;;;;5018572;28;20029;-75
2023/08/19 12:43:05;;;;;;;15.68;11.05;;;;;;;;;;5017255;28;20029;-74
2023/08/19 12:45:30;;;;;;;16.60;11.98;;;;;;;;;;5016826;28;20052;-74
2023/08/19 12:47:55;;;;;;;16.77;12.77;;;;;;;;;;5035595;28;20057;-75
2023/08/19 12:50:21;;;;;;;16.92;12.23;;;;;;;;;;5035398;28;20021;-75
2023/08/19 12:52:48;;;;;;;15.68;10.25;;;;;;;;;;5017954;28;20380;-75
2023/08/19 12:55:13;;;;;;;15.65;11.65;;;;;;;;;;5017402;28;20092;-74
2023/08/19 12:57:42;;;;;;;16.10;12.00;;;;;;;;;;5017477;28;20044;-74
2023/08/19 13:00:12;;;;;;;16.40;12.00;;;;;;;;;;5035220;28;20025;-75
2023/08/19 13:02:38;;;;;;;17.05;11.30;;;;;;;;;;5001025;28;20053;-75
2023/08/19 13:05:03;;;;;;;16.05;11.02;;;;;;;;;;5034299;28;20045;-74
2023/08/19 13:07:29;;;;;;;14.70;10.05;;;;;;;;;;5034887;28;20554;-75
2023/08/19 13:09:54;;;;;;;16.42;12.00;;;;;;;;;;5035034;28;20032;-75
2023/08/19 13:12:19;;;;;;;22.95;13.07;;;;;;;;;;5017158;28;20021;-75
2023/08/19 13:14:44;;;;;;;15.93;11.55;;;;;;;;;;5034107;28;20637;-76
2023/08/19 13:17:10;;;;;;;14.43;10.63;;;;;;;;;;5035849;28;20021;-76
2023/08/19 13:19:35;;;;;;;14.10;10.95;;;;;;;;;;5035629;28;20036;-75
2023/08/19 13:22:00;;;;;;;18.45;11.70;;;;;;;;;;5018513;28;20095;-75
2023/08/19 13:24:26;;;;;;;16.67;11.88;;;;;;;;;;5018129;28;20026;-75
2023/08/19 13:26:51;;;;;;;15.73;11.07;;;;;;;;;;5034689;28;20029;-75
2023/08/19 13:29:16;;;;;;;17.52;11.65;;;;;;;;;;5035230;28;20036;-75
2023/08/19 13:31:42;;;;;;;16.58;11.35;;;;;;;;;;5034474;28;20036;-74
2023/08/19 13:34:07;;;;;;;15.98;11.52;;;;;;;;;;5034497;28;20120;-75
2023/08/19 13:36:32;;;;;;;18.98;12.50;;;;;;;;;;5034474;28;20067;-75
2023/08/19 13:38:59;;;;;;;15.65;10.90;;;;;;;;;;5034688;28;20395;-75
2023/08/19 13:41:25;;;;;;;17.90;11.98;;;;;;;;;;5000426;28;20045;-75
2023/08/19 13:43:50;;;;;;;17.48;12.27;;;;;;;;;;5034305;28;20026;-75
2023/08/19 13:46:15;;;;;;;19.63;13.73;;;;;;;;;;5034278;28;20566;-75
2023/08/19 13:48:41;;;;;;;18.30;13.27;;;;;;;;;;5016550;28;20028;-75
2023/08/19 13:51:06;;;;;;;19.20;13.55;;;;;;;;;;5016285;28;20034;-75
2023/08/19 13:53:31;;;;;;;18.63;13.75;;;;;;;;;;5016038;28;20064;-74
2023/08/19 13:55:56;;;;;;;17.42;12.95;;;;;;;;;;5016392;28;20018;-75
2023/08/19 13:58:22;;;;;;;17.63;12.57;;;;;;;;;;4999685;28;20108;-74
2023/08/19 14:00:47;;;;;;;18.75;13.45;;;;;;;;;;5015736;28;20487;-75
2023/08/19 14:03:13;;;;;;;17.83;12.07;;;;;;;;;;5033125;28;20124;-74
2023/08/19 14:05:38;;;;;;;19.40;13.15;;;;;;;;;;5016254;28;20555;-75
2023/08/19 14:08:04;;;;;;;16.58;11.13;;;;;;;;;;5032700;28;20395;-74
2023/08/19 14:10:29;;;;;;;15.90;10.82;;;;;;;;;;5015865;28;20383;-74
2023/08/19 14:12:54;;;;;;;15.23;10.70;;;;;;;;;;5033300;28;20400;-73
2023/08/19 14:15:21;;;;;;;18.80;12.93;;;;;;;;;;5033065;28;20032;-74